createdAt,value
2018-02-01T00:02:19.097Z,3.20
2018-02-01T00:04:47.218Z,3.20
2018-02-01T00:07:15.368Z,3.20
2018-02-01T00:09:44.249Z,3.20
2018-02-01T00:12:12.398Z,3.20
2018-02-01T00:14:40.516Z,3.20
2018-02-01T00:17:08.673Z,3.20
2018-02-01T00:19:36.797Z,3.20
2018-02-01T00:22:04.945Z,3.10
2018-02-01T00:24:33.075Z,3.10
2018-02-01T00:27:01.217Z,3.10
2018-02-01T00:29:29.338Z,3.20
2018-02-01T00:31:57.485Z,3.10
2018-02-01T00:34:25.610Z,3.10
2018-02-01T00:36:53.762Z,3.10
2018-02-01T00:39:22.651Z,3.10
2018-02-01T00:41:50.807Z,3.10
2018-02-01T00:44:18.921Z,3.10
2018-02-01T00:46:47.064Z,3.10
2018-02-01T00:49:15.188Z,3.10
2018-02-01T00:51:43.336Z,3.00
2018-02-01T00:54:11.460Z,3.10
2018-02-01T00:56:39.610Z,3.10
2018-02-01T00:59:07.737Z,3.10
2018-02-01T01:01:35.885Z,3.10
2018-02-01T01:04:04.009Z,3.10
2018-02-01T01:06:32.159Z,3.10
2018-02-01T01:09:01.046Z,3.10
2018-02-01T01:11:29.189Z,3.00
2018-02-01T01:13:57.312Z,3.10
2018-02-01T01:16:25.460Z,3.00
2018-02-01T01:18:53.582Z,3.00
2018-02-01T01:21:21.735Z,3.00
2018-02-01T01:23:49.856Z,3.00
2018-02-01T01:26:18.008Z,2.90
2018-02-01T01:28:46.124Z,2.90
2018-02-01T01:31:14.271Z,2.90
2018-02-01T01:33:42.396Z,2.90
2018-02-01T01:36:10.550Z,2.90
2018-02-01T01:38:39.432Z,2.80
2018-02-01T01:41:07.590Z,2.80
2018-02-01T01:43:35.714Z,2.80
2018-02-01T01:46:10.617Z,2.80
2018-02-01T01:48:38.738Z,2.80
2018-02-01T01:51:06.885Z,2.80
2018-02-01T01:53:35.008Z,2.80
2018-02-01T01:56:03.203Z,2.80
2018-02-01T01:58:31.309Z,2.70
2018-02-01T02:00:59.455Z,2.70
2018-02-01T02:03:27.585Z,2.70
2018-02-01T02:05:55.709Z,2.70
2018-02-01T02:08:24.621Z,2.70
2018-02-01T02:10:52.748Z,2.60
2018-02-01T02:13:20.896Z,2.60
2018-02-01T02:15:49.024Z,2.60
2018-02-01T02:18:17.189Z,2.60
2018-02-01T02:20:45.312Z,2.50
2018-02-01T02:23:13.463Z,2.50
2018-02-01T02:25:41.581Z,2.50
2018-02-01T02:28:09.734Z,2.50
2018-02-01T02:30:37.861Z,2.40
2018-02-01T02:33:06.006Z,2.40
2018-02-01T02:35:34.125Z,2.40
2018-02-01T02:38:02.277Z,2.40
2018-02-01T02:40:30.421Z,2.40
2018-02-01T02:42:58.569Z,2.40
2018-02-01T02:45:26.693Z,2.30
2018-02-01T02:47:55.609Z,2.30
2018-02-01T02:50:23.738Z,2.30
2018-02-01T02:52:51.903Z,2.30
2018-02-01T02:55:20.023Z,2.30
2018-02-01T02:57:48.171Z,2.30
2018-02-01T03:00:16.297Z,2.30
2018-02-01T03:02:44.442Z,2.30
2018-02-01T03:05:12.567Z,2.20
2018-02-01T03:07:40.714Z,2.20
2018-02-01T03:10:08.846Z,2.20
2018-02-01T03:12:36.993Z,2.20
2018-02-01T03:15:05.123Z,2.20
2018-02-01T03:17:33.266Z,2.20
2018-02-01T03:20:01.385Z,2.10
2018-02-01T03:22:29.536Z,2.20
2018-02-01T03:24:57.662Z,2.10
2018-02-01T03:27:25.811Z,2.10
2018-02-01T03:29:53.938Z,2.10
2018-02-01T03:32:22.080Z,2.10
2018-02-01T03:34:50.203Z,2.10
2018-02-01T03:37:18.344Z,2.00
2018-02-01T03:39:47.234Z,2.00
2018-02-01T03:42:15.382Z,2.00
2018-02-01T03:44:43.516Z,2.00
2018-02-01T03:47:11.668Z,2.00
2018-02-01T03:49:39.798Z,2.00
2018-02-01T03:52:07.945Z,2.00
2018-02-01T03:54:36.065Z,1.90
2018-02-01T03:57:04.981Z,2.00
2018-02-01T03:59:33.106Z,2.00
2018-02-01T04:02:01.258Z,2.00
2018-02-01T04:04:29.379Z,2.00
2018-02-01T04:06:58.294Z,1.90
2018-02-01T04:09:26.422Z,1.90
2018-02-01T04:11:54.564Z,1.90
2018-02-01T04:14:22.694Z,1.90
2018-02-01T04:16:50.845Z,1.90
2018-02-01T04:19:18.993Z,1.90
2018-02-01T04:21:47.119Z,1.90
2018-02-01T04:24:15.274Z,2.00
2018-02-01T04:26:43.402Z,1.90
2018-02-01T04:29:11.550Z,1.90
2018-02-01T04:31:39.676Z,1.90
2018-02-01T04:34:07.821Z,1.90
2018-02-01T04:36:35.954Z,1.90
2018-02-01T04:39:04.102Z,1.90
2018-02-01T04:41:32.220Z,1.90
2018-02-01T04:44:00.379Z,1.90
2018-02-01T04:46:28.501Z,1.90
2018-02-01T04:48:56.644Z,1.80
2018-02-01T04:51:24.766Z,1.80
2018-02-01T04:53:52.914Z,1.80
2018-02-01T04:56:21.037Z,1.80
2018-02-01T04:58:49.186Z,1.80
2018-02-01T05:01:17.311Z,1.70
2018-02-01T05:03:45.455Z,1.80
2018-02-01T05:06:14.350Z,1.80
2018-02-01T05:08:42.521Z,1.70
2018-02-01T05:11:11.409Z,1.80
2018-02-01T05:13:39.566Z,1.70
2018-02-01T05:16:08.462Z,1.80
2018-02-01T05:18:36.637Z,1.80
2018-02-01T05:21:05.530Z,1.80
2018-02-01T05:23:33.681Z,1.80
2018-02-01T05:26:01.807Z,1.80
2018-02-01T05:28:29.954Z,1.80
2018-02-01T05:30:58.073Z,1.80
2018-02-01T05:33:26.218Z,1.80
2018-02-01T05:35:54.351Z,1.80
2018-02-01T05:38:22.493Z,1.80
2018-02-01T05:40:50.609Z,1.70
2018-02-01T05:43:18.765Z,1.70
2018-02-01T05:45:46.885Z,1.80
2018-02-01T05:48:15.038Z,1.80
2018-02-01T05:50:43.930Z,1.80
2018-02-01T05:53:12.078Z,1.70
2018-02-01T05:55:40.213Z,1.80
2018-02-01T05:58:08.362Z,1.70
2018-02-01T06:00:36.484Z,1.70
2018-02-01T06:03:04.671Z,1.70
2018-02-01T06:05:32.799Z,1.70
2018-02-01T06:08:00.964Z,1.70
2018-02-01T06:10:29.090Z,1.60
2018-02-01T06:12:57.274Z,1.60
2018-02-01T06:15:25.396Z,1.60
2018-02-01T06:17:53.617Z,1.60
2018-02-01T06:20:21.761Z,1.60
2018-02-01T06:22:49.905Z,1.60
2018-02-01T06:25:18.025Z,1.60
2018-02-01T06:27:46.210Z,1.60
2018-02-01T06:30:14.325Z,1.60
2018-02-01T06:32:42.480Z,1.60
2018-02-01T06:35:11.380Z,1.60
2018-02-01T06:37:39.525Z,1.60
2018-02-01T06:40:07.668Z,1.60
2018-02-01T06:42:35.823Z,1.60
2018-02-01T06:45:03.956Z,1.60
2018-02-01T06:47:32.073Z,1.60
2018-02-01T06:50:00.234Z,1.60
2018-02-01T06:52:28.360Z,1.60
2018-02-01T06:54:56.511Z,1.60
2018-02-01T06:57:24.634Z,1.60
2018-02-01T06:59:52.785Z,1.60
2018-02-01T07:02:21.677Z,1.60
2018-02-01T07:04:49.832Z,1.50
2018-02-01T07:07:17.961Z,1.60
2018-02-01T07:09:46.131Z,1.50
2018-02-01T07:12:14.256Z,1.50
2018-02-01T07:14:42.409Z,1.50
2018-02-01T07:17:10.553Z,1.50
2018-02-01T07:19:38.705Z,1.50
2018-02-01T07:22:06.877Z,1.50
2018-02-01T07:24:35.015Z,1.50
2018-02-01T07:27:03.140Z,1.50
2018-02-01T07:29:31.288Z,1.50
2018-02-01T07:31:59.416Z,1.50
2018-02-01T07:34:27.560Z,1.50
2018-02-01T07:36:55.697Z,1.50
2018-02-01T07:39:23.849Z,1.50
2018-02-01T07:41:51.972Z,1.50
2018-02-01T07:44:20.128Z,1.60
2018-02-01T07:46:48.247Z,1.60
2018-02-01T07:49:16.399Z,1.60
2018-02-01T07:51:44.521Z,1.70
2018-02-01T07:54:12.668Z,1.70
2018-02-01T07:56:40.796Z,1.70
2018-02-01T07:59:08.950Z,1.80
2018-02-01T08:01:37.086Z,1.80
2018-02-01T08:04:05.336Z,1.80
2018-02-01T08:06:33.458Z,1.80
2018-02-01T08:09:01.616Z,1.90
2018-02-01T08:11:29.746Z,1.90
2018-02-01T08:13:57.904Z,2.00
2018-02-01T08:16:26.028Z,2.00
2018-02-01T08:18:54.182Z,2.10
2018-02-01T08:21:22.309Z,2.10
2018-02-01T08:23:50.457Z,2.20
2018-02-01T08:26:18.581Z,2.40
2018-02-01T08:28:46.729Z,2.50
2018-02-01T08:31:14.851Z,2.60
2018-02-01T08:33:43.010Z,2.70
2018-02-01T08:36:11.128Z,2.90
2018-02-01T08:38:39.276Z,2.90
2018-02-01T08:41:07.401Z,3.10
2018-02-01T08:43:36.337Z,3.20
2018-02-01T08:46:04.462Z,3.20
2018-02-01T08:48:32.618Z,3.30
2018-02-01T08:51:00.767Z,3.30
2018-02-01T08:53:28.917Z,3.40
2018-02-01T08:55:57.050Z,3.50
2018-02-01T08:58:25.206Z,3.60
2018-02-01T09:00:53.334Z,3.70
2018-02-01T09:03:21.502Z,3.70
2018-02-01T09:05:49.625Z,3.70
2018-02-01T09:08:17.745Z,3.80
2018-02-01T09:10:45.905Z,3.90
2018-02-01T09:13:14.034Z,3.90
2018-02-01T09:15:42.177Z,3.90
2018-02-01T09:18:10.306Z,3.90
2018-02-01T09:20:38.457Z,4.00
2018-02-01T09:23:06.575Z,4.00
2018-02-01T09:25:34.734Z,4.10
2018-02-01T09:28:02.861Z,4.30
2018-02-01T09:30:31.009Z,4.50
2018-02-01T09:32:59.143Z,4.70
2018-02-01T09:35:27.294Z,4.70
2018-02-01T09:37:55.422Z,4.60
2018-02-01T09:40:23.594Z,4.40
2018-02-01T09:42:51.729Z,4.40
2018-02-01T09:45:19.883Z,4.30
2018-02-01T09:47:48.013Z,4.30
2018-02-01T09:50:16.170Z,4.20
2018-02-01T09:52:45.061Z,4.20
2018-02-01T09:55:13.212Z,4.20
2018-02-01T09:57:41.336Z,4.10
2018-02-01T10:00:09.495Z,4.10
2018-02-01T10:02:37.613Z,4.00
2018-02-01T10:05:05.781Z,4.00
2018-02-01T10:07:33.922Z,4.00
2018-02-01T10:10:02.137Z,4.00
2018-02-01T10:12:30.245Z,4.00
2018-02-01T10:14:58.406Z,4.00
2018-02-01T10:17:26.540Z,4.00
2018-02-01T10:19:54.696Z,4.00
2018-02-01T10:22:22.861Z,4.10
2018-02-01T10:24:51.024Z,4.10
2018-02-01T10:27:19.917Z,4.20
2018-02-01T10:29:48.070Z,4.20
2018-02-01T10:32:16.206Z,4.20
2018-02-01T10:34:44.362Z,4.20
2018-02-01T10:37:12.502Z,4.20
2018-02-01T10:39:40.667Z,4.20
2018-02-01T10:42:08.811Z,4.20
2018-02-01T10:44:36.963Z,4.10
2018-02-01T10:47:05.091Z,4.10
2018-02-01T10:49:33.254Z,4.10
2018-02-01T10:52:01.402Z,4.10
2018-02-01T10:54:29.570Z,4.10
2018-02-01T10:56:57.706Z,4.10
2018-02-01T10:59:25.869Z,4.10
2018-02-01T11:01:54.769Z,4.10
2018-02-01T11:04:22.926Z,4.10
2018-02-01T11:06:51.847Z,4.10
2018-02-01T11:09:20.057Z,4.10
2018-02-01T11:11:48.192Z,4.10
2018-02-01T11:14:16.346Z,4.10
2018-02-01T11:16:44.489Z,4.10
2018-02-01T11:19:12.641Z,4.10
2018-02-01T11:21:40.762Z,4.10
2018-02-01T11:24:08.909Z,4.10
2018-02-01T11:26:37.038Z,4.20
2018-02-01T11:29:05.205Z,4.20
2018-02-01T11:31:33.341Z,4.20
2018-02-01T11:34:01.461Z,4.20
2018-02-01T11:36:29.614Z,4.20
2018-02-01T11:38:57.798Z,4.20
2018-02-01T11:41:26.685Z,4.20
2018-02-01T11:43:54.813Z,4.20
2018-02-01T11:46:22.966Z,4.30
2018-02-01T11:48:51.097Z,4.30
2018-02-01T11:51:19.255Z,4.40
2018-02-01T11:53:47.381Z,4.50
2018-02-01T11:56:15.537Z,4.50
2018-02-01T11:58:43.666Z,4.60
2018-02-01T12:01:11.819Z,4.80
2018-02-01T12:03:39.950Z,4.90
2018-02-01T12:06:08.100Z,4.90
2018-02-01T12:08:36.997Z,5.00
2018-02-01T12:11:05.142Z,5.00
2018-02-01T12:13:33.274Z,5.00
2018-02-01T12:16:01.422Z,5.00
2018-02-01T12:18:29.560Z,4.90
2018-02-01T12:20:57.724Z,4.90
2018-02-01T12:23:25.849Z,4.90
2018-02-01T12:25:54.005Z,4.90
2018-02-01T12:28:22.126Z,4.80
2018-02-01T12:30:50.273Z,4.80
2018-02-01T12:33:18.402Z,4.80
2018-02-01T12:35:46.553Z,4.80
2018-02-01T12:38:14.676Z,4.90
2018-02-01T12:40:42.832Z,4.90
2018-02-01T12:43:10.957Z,4.90
2018-02-01T12:45:39.110Z,4.90
2018-02-01T12:48:07.228Z,4.90
2018-02-01T12:50:35.377Z,4.90
2018-02-01T12:53:03.501Z,4.90
2018-02-01T12:55:31.649Z,4.90
2018-02-01T12:57:59.789Z,4.90
2018-02-01T13:00:27.938Z,4.90
2018-02-01T13:02:56.058Z,4.90
2018-02-01T13:05:24.206Z,4.90
2018-02-01T13:07:52.337Z,4.90
2018-02-01T13:10:20.489Z,4.80
2018-02-01T13:12:48.629Z,4.80
2018-02-01T13:15:16.789Z,4.80
2018-02-01T13:17:44.933Z,4.80
2018-02-01T13:20:13.846Z,4.70
2018-02-01T13:22:41.996Z,4.70
2018-02-01T13:25:10.893Z,4.70
2018-02-01T13:27:39.041Z,4.70
2018-02-01T13:30:07.193Z,4.70
2018-02-01T13:32:35.327Z,4.70
2018-02-01T13:35:03.480Z,4.70
2018-02-01T13:37:31.679Z,4.80
2018-02-01T13:39:59.833Z,4.80
2018-02-01T13:42:27.952Z,4.80
2018-02-01T13:44:56.113Z,4.80
2018-02-01T13:47:24.244Z,4.80
2018-02-01T13:49:52.378Z,4.90
2018-02-01T13:52:20.525Z,4.80
2018-02-01T13:54:49.509Z,4.80
2018-02-01T13:57:17.652Z,4.90
2018-02-01T13:59:45.824Z,4.80
2018-02-01T14:02:13.986Z,4.80
2018-02-01T14:04:42.128Z,4.80
2018-02-01T14:07:10.282Z,4.80
2018-02-01T14:09:38.422Z,4.80
2018-02-01T14:12:06.595Z,4.70
2018-02-01T14:14:34.720Z,4.70
2018-02-01T14:17:02.873Z,4.70
2018-02-01T14:19:31.001Z,4.70
2018-02-01T14:21:59.148Z,4.70
2018-02-01T14:24:27.307Z,4.70
2018-02-01T14:26:55.475Z,4.70
2018-02-01T14:29:23.597Z,4.70
2018-02-01T14:31:51.756Z,4.70
2018-02-01T14:34:19.886Z,4.70
2018-02-01T14:36:48.058Z,4.70
2018-02-01T14:39:16.190Z,4.70
2018-02-01T14:41:44.361Z,4.70
2018-02-01T14:44:12.483Z,4.70
2018-02-01T14:46:40.641Z,4.70
2018-02-01T14:49:08.809Z,4.70
2018-02-01T14:51:37.717Z,4.70
2018-02-01T14:54:05.854Z,4.70
2018-02-01T14:56:34.015Z,4.70
2018-02-01T14:59:02.139Z,4.70
2018-02-01T15:01:30.318Z,4.70
2018-02-01T15:03:58.444Z,4.60
2018-02-01T15:06:26.592Z,4.60
2018-02-01T15:08:54.717Z,4.60
2018-02-01T15:11:22.873Z,4.60
2018-02-01T15:13:51.013Z,4.50
2018-02-01T15:16:19.175Z,4.50
2018-02-01T15:18:47.297Z,4.50
2018-02-01T15:21:15.446Z,4.50
2018-02-01T15:23:43.587Z,4.40
2018-02-01T15:26:11.741Z,4.50
2018-02-01T15:28:39.862Z,4.40
2018-02-01T15:31:08.020Z,4.40
2018-02-01T15:33:36.166Z,4.30
2018-02-01T15:36:04.328Z,4.30
2018-02-01T15:38:32.459Z,4.20
2018-02-01T15:41:00.604Z,4.20
2018-02-01T15:43:28.735Z,4.20
2018-02-01T15:45:56.882Z,4.10
2018-02-01T15:48:25.005Z,4.10
2018-02-01T15:50:53.161Z,4.00
2018-02-01T15:53:21.286Z,4.00
2018-02-01T15:55:49.448Z,4.00
2018-02-01T15:58:17.598Z,4.10
2018-02-01T16:00:45.760Z,4.10
2018-02-01T16:03:13.876Z,4.10
2018-02-01T16:05:42.067Z,4.10
2018-02-01T16:08:10.217Z,4.00
2018-02-01T16:10:38.340Z,4.00
2018-02-01T16:13:06.490Z,4.00
2018-02-01T16:15:34.614Z,4.00
2018-02-01T16:18:02.766Z,4.00
2018-02-01T16:20:31.653Z,4.00
2018-02-01T16:22:59.837Z,4.00
2018-02-01T16:25:27.970Z,4.00
2018-02-01T16:27:56.121Z,4.00
2018-02-01T16:30:24.276Z,4.10
2018-02-01T16:32:52.431Z,4.10
2018-02-01T16:35:20.568Z,4.00
2018-02-01T16:37:48.731Z,4.00
2018-02-01T16:40:16.858Z,4.00
2018-02-01T16:42:45.007Z,3.90
2018-02-01T16:45:13.900Z,3.90
2018-02-01T16:47:42.051Z,3.90
2018-02-01T16:50:10.169Z,3.90
2018-02-01T16:52:38.324Z,4.00
2018-02-01T16:55:07.216Z,4.00
2018-02-01T16:57:36.310Z,4.00
2018-02-01T17:00:04.453Z,4.00
2018-02-01T17:02:32.626Z,3.90
2018-02-01T17:05:00.745Z,3.90
2018-02-01T17:07:28.933Z,3.90
2018-02-01T17:09:57.055Z,3.90
2018-02-01T17:12:25.210Z,3.90
2018-02-01T17:14:53.345Z,3.90
2018-02-01T17:17:21.499Z,3.90
2018-02-01T17:19:49.689Z,3.90
2018-02-01T17:22:17.852Z,3.90
2018-02-01T17:24:46.095Z,4.00
2018-02-01T17:27:14.262Z,4.00
2018-02-01T17:29:42.381Z,4.00
2018-02-01T17:32:10.538Z,4.00
2018-02-01T17:34:38.661Z,4.00
2018-02-01T17:37:06.812Z,4.10
2018-02-01T17:39:34.936Z,4.10
2018-02-01T17:42:03.103Z,4.10
2018-02-01T17:44:31.229Z,4.10
2018-02-01T17:46:59.459Z,4.10
2018-02-01T17:49:28.404Z,4.10
2018-02-01T17:51:56.649Z,4.10
2018-02-01T17:54:25.002Z,4.10
2018-02-01T17:56:53.484Z,4.20
2018-02-01T17:59:22.328Z,4.20
2018-02-01T18:01:51.016Z,4.20
2018-02-01T18:04:19.648Z,4.20
2018-02-01T18:06:49.307Z,4.20
2018-02-01T18:09:17.709Z,4.20
2018-02-01T18:11:46.321Z,4.20
2018-02-01T18:14:15.501Z,4.10
2018-02-01T18:16:44.167Z,4.20
2018-02-01T18:19:12.849Z,4.10
2018-02-01T18:21:41.200Z,4.10
2018-02-01T18:24:09.877Z,4.10
2018-02-01T18:26:38.752Z,4.10
2018-02-01T18:29:07.236Z,4.10
2018-02-01T18:31:37.121Z,4.00
2018-02-01T18:34:06.384Z,4.00
2018-02-01T18:36:35.230Z,3.90
2018-02-01T18:39:03.997Z,4.00
2018-02-01T18:41:34.524Z,3.90
2018-02-01T18:44:03.601Z,3.90
2018-02-01T18:46:31.733Z,3.90
2018-02-01T18:49:00.009Z,3.90
2018-02-01T18:51:28.170Z,3.80
2018-02-01T18:53:56.372Z,3.80
2018-02-01T18:56:24.537Z,3.70
2018-02-01T18:58:53.210Z,3.70
2018-02-01T19:01:22.152Z,3.50
2018-02-01T19:03:50.308Z,3.50
2018-02-01T19:06:18.611Z,3.50
2018-02-01T19:08:46.889Z,3.50
2018-02-01T19:11:15.441Z,3.50
2018-02-01T19:13:44.244Z,3.50
2018-02-01T19:16:12.773Z,3.50
2018-02-01T19:18:41.654Z,3.40
2018-02-01T19:21:09.839Z,3.40
2018-02-01T19:23:39.107Z,3.30
2018-02-01T19:26:07.247Z,3.30
2018-02-01T19:28:35.486Z,3.20
2018-02-01T19:31:03.848Z,3.10
2018-02-01T19:33:32.041Z,3.10
2018-02-01T19:36:01.002Z,3.00
2018-02-01T19:38:29.183Z,3.00
2018-02-01T19:40:57.447Z,2.90
2018-02-01T19:43:25.780Z,2.90
2018-02-01T19:45:54.001Z,2.80
2018-02-01T19:48:22.436Z,2.80
2018-02-01T19:50:51.002Z,2.70
2018-02-01T19:53:19.242Z,2.60
2018-02-01T19:55:47.441Z,2.60
2018-02-01T19:58:16.365Z,2.50
2018-02-01T20:00:44.489Z,2.50
2018-02-01T20:03:13.176Z,2.50
2018-02-01T20:05:41.401Z,2.40
2018-02-01T20:08:09.600Z,2.40
2018-02-01T20:10:37.739Z,2.40
2018-02-01T20:13:06.105Z,2.40
2018-02-01T20:15:34.618Z,2.30
2018-02-01T20:18:02.806Z,2.30
2018-02-01T20:20:31.192Z,2.30
2018-02-01T20:22:59.386Z,2.30
2018-02-01T20:25:27.531Z,2.20
2018-02-01T20:27:55.705Z,2.30
2018-02-01T20:30:23.911Z,2.20
2018-02-01T20:32:52.209Z,2.20
2018-02-01T20:35:21.141Z,2.40
2018-02-01T20:37:49.324Z,2.40
2018-02-01T20:40:17.453Z,2.50
2018-02-01T20:42:45.604Z,2.50
2018-02-01T20:45:13.757Z,2.60
2018-02-01T20:47:41.965Z,2.60
2018-02-01T20:50:10.104Z,2.60
2018-02-01T20:52:38.360Z,2.60
2018-02-01T20:55:06.512Z,2.60
2018-02-01T20:57:34.724Z,2.60
2018-02-01T21:00:02.923Z,2.60
2018-02-01T21:02:31.147Z,2.60
2018-02-01T21:04:59.319Z,2.60
2018-02-01T21:07:27.446Z,2.50
2018-02-01T21:09:55.681Z,2.50
2018-02-01T21:12:23.849Z,2.50
2018-02-01T21:14:52.934Z,2.40
2018-02-01T21:17:21.382Z,2.40
2018-02-01T21:19:49.653Z,2.40
2018-02-01T21:22:17.776Z,2.30
2018-02-01T21:24:45.980Z,2.30
2018-02-01T21:27:14.116Z,2.30
2018-02-01T21:29:42.347Z,2.30
2018-02-01T21:32:10.502Z,2.40
2018-02-01T21:34:38.778Z,2.40
2018-02-01T21:37:06.907Z,2.40
2018-02-01T21:39:35.131Z,2.50
2018-02-01T21:42:03.265Z,2.50
2018-02-01T21:44:31.473Z,2.60
2018-02-01T21:46:59.632Z,2.60
2018-02-01T21:49:27.784Z,2.70
2018-02-01T21:51:55.991Z,2.80
2018-02-01T21:54:24.140Z,2.80
2018-02-01T21:56:52.282Z,2.80
2018-02-01T21:59:20.442Z,2.80
2018-02-01T22:01:48.726Z,2.80
2018-02-01T22:04:17.653Z,2.80
2018-02-01T22:06:45.789Z,2.80
2018-02-01T22:09:13.953Z,2.80
2018-02-01T22:11:42.091Z,2.80
2018-02-01T22:14:10.241Z,2.80
2018-02-01T22:16:38.375Z,2.80
2018-02-01T22:19:06.529Z,2.80
2018-02-01T22:21:34.657Z,2.80
2018-02-01T22:24:02.831Z,2.80
2018-02-01T22:26:30.958Z,2.80
2018-02-01T22:28:59.105Z,2.80
2018-02-01T22:31:27.225Z,2.80
2018-02-01T22:33:55.383Z,2.70
2018-02-01T22:36:24.284Z,2.70
2018-02-01T22:38:52.435Z,2.70
2018-02-01T22:41:20.556Z,2.70
2018-02-01T22:43:48.767Z,2.60
2018-02-01T22:46:16.886Z,2.60
2018-02-01T22:48:45.049Z,2.60
2018-02-01T22:51:13.942Z,2.50
2018-02-01T22:53:42.105Z,2.50
2018-02-01T22:56:11.000Z,2.50
2018-02-01T22:58:39.125Z,2.40
2018-02-01T23:01:07.269Z,2.50
2018-02-01T23:03:35.407Z,2.40
2018-02-01T23:06:03.554Z,2.40
2018-02-01T23:08:31.677Z,2.40
2018-02-01T23:10:59.818Z,2.40
2018-02-01T23:13:28.729Z,2.40
2018-02-01T23:15:56.881Z,2.40
2018-02-01T23:18:25.005Z,2.40
2018-02-01T23:20:53.163Z,2.30
2018-02-01T23:23:21.276Z,2.30
2018-02-01T23:25:49.429Z,2.30
2018-02-01T23:28:17.555Z,2.30
2018-02-01T23:30:45.702Z,2.20
2018-02-01T23:33:13.838Z,2.20
2018-02-01T23:35:41.987Z,2.10
2018-02-01T23:38:10.105Z,2.10
2018-02-01T23:40:38.254Z,2.10
2018-02-01T23:43:06.372Z,2.00
2018-02-01T23:45:34.529Z,2.00
2018-02-01T23:48:02.656Z,1.90
2018-02-01T23:50:30.805Z,1.90
2018-02-01T23:52:58.931Z,1.90
2018-02-01T23:55:27.087Z,1.80
2018-02-01T23:57:55.215Z,1.80
